Terminal Aerodrome Forecast
Issued by NWS King Salmon, AK

Home | Current Version | Previous Version | Text Only | Print | Product List | Glossary On
Versions: 1 2 3 4 5 6 7 8 9 10 11 12 13 14 15 16
000
FTAK31 PANC 221723
TAFAKN
TAF
PAKN 221723Z 2218/2318 19007KT P6SM -RA BKN020 OVC030
      TEMPO 2218/2221 BKN010
     FM222100 22010KT P6SM -SHRA BKN025 OVC050
     FM230200 24012G22KT P6SM VCSH BKN050
     FM231200 19008KT P6SM -RA SCT010 OVC015=

USA.gov is the U.S. government's official web portal to all federal, state and local government web resources and services.